Terminal Aerodrome Forecast
Issued by NWS

Home | Current Version | Previous Version | Text Only | Print | Product List | Glossary On
Versions: 1 2 3 4 5 6 7 8 9 10 11 12 13 14 15
319
FTUS43 KGRR 131139
TAFBTL
TAF
KBTL 131139Z 1312/1412 28008KT P6SM BKN050
     FM131500 32013G21KT P6SM -SN BKN035
     FM132200 31008KT P6SM SCT040=

USA.gov is the U.S. government's official web portal to all federal, state and local government web resources and services.